Terminal Aerodrome Forecast
Issued by NWS North Platte, NE

Home | Current Version | Previous Version | Text Only | Print | Product List | Glossary On
Versions: 1 2 3 4 5 6 7 8 9 10 11 12 13 14 15 16 17 18 19 20 21 22 23 24
000
FTUS43 KLBF 262300
TAFVTN
TAF
KVTN 262336Z 2700/2724 VRB05KT P6SM SKC
     FM271400 18010KT P6SM BKN090
     FM271800 17014G21KT P6SM BKN060 OVC090
      TEMPO 2719/2723 -TSRA BKN050CB=

USA.gov is the U.S. government's official web portal to all federal, state and local government web resources and services.